Terminal Aerodrome Forecast
Issued by NWS

Home | Current Version | Previous Version | Text Only | Print | Product List | Glossary On
Versions: 1 2 3 4 5 6 7 8 9 10 11 12 13 14 15 16 17 18 19 20 21 22 23
000
FTAK31 PAFA 062337
TAFAGA
TAF
PAGA 062337Z 0700/0724 11005KT P6SM SCT090
     FM070900 06003KT P6SM SCT090 SCT200
     FM071800 09005KT P6SM OVC100=

USA.gov is the U.S. government's official web portal to all federal, state and local government web resources and services.